Time;durP1;ratioP1;P1;durP2;ratioP2;P2;SDS_P1;SDS_P2;PMS_P1;PMS_P2;Temp;Humidity;BMP_temperature;BMP_pressure;BME280_temperature;BME280_humidity;BME280_pressure;Samples;Min_cycle;Max_cycle;Signal;HPM_P1;HPM_P2
2021/08/04 00:02:04;;;;;;;21.80;7.35;;;;;;;23.56;63.07;101509.13;1795419;79;21222;-82
2021/08/04 00:04:37;;;;;;;28.27;7.60;;;;;;;23.51;63.36;101500.75;1825676;78;21304;-83
2021/08/04 00:07:09;;;;;;;15.80;7.93;;;;;;;23.48;63.47;101511.91;1820033;78;21304;-82
2021/08/04 00:09:45;;;;;;;18.00;8.05;;;;;;;23.43;63.52;101508.64;1798844;79;21906;-85
2021/08/04 00:12:18;;;;;;;17.65;6.67;;;;;;;23.42;63.60;101518.89;1800694;79;21905;-73
2021/08/04 00:14:51;;;;;;;13.10;6.37;;;;;;;23.39;63.69;101518.11;1795854;79;21217;-85
2021/08/04 00:17:24;;;;;;;14.87;6.33;;;;;;;23.34;63.91;101518.27;1808399;79;21158;-70
2021/08/04 00:19:57;;;;;;;10.80;6.87;;;;;;;23.31;64.08;101516.92;1785490;80;21811;-78
2021/08/04 00:22:29;;;;;;;13.20;6.73;;;;;;;23.27;64.16;101519.30;1811664;79;21680;-70
2021/08/04 00:25:03;;;;;;;18.45;7.30;;;;;;;23.25;64.21;101521.06;1816278;78;21795;-71
2021/08/04 00:27:35;;;;;;;13.93;6.90;;;;;;;23.23;64.15;101514.03;1818897;79;21186;-83
2021/08/04 00:30:09;;;;;;;9.23;6.05;;;;;;;23.18;64.15;101517.00;1791641;78;21222;-71
2021/08/04 00:32:41;;;;;;;13.40;6.60;;;;;;;23.15;64.21;101513.34;1821075;79;21913;-79
2021/08/04 00:35:14;;;;;;;13.28;6.00;;;;;;;23.13;64.32;101507.17;1819798;77;21348;-70
2021/08/04 00:37:47;;;;;;;17.00;6.20;;;;;;;23.14;64.29;101508.84;1820168;79;21305;-74
2021/08/04 00:40:20;;;;;;;16.60;6.50;;;;;;;23.16;64.14;101506.55;1821564;79;21336;-79
2021/08/04 00:42:53;;;;;;;11.45;5.83;;;;;;;23.20;64.11;101501.91;1821587;79;21379;-69
2021/08/04 00:45:26;;;;;;;17.82;6.90;;;;;;;23.20;64.24;101504.75;1821377;79;21324;-79
2021/08/04 00:47:58;;;;;;;21.10;7.20;;;;;;;23.17;64.45;101500.56;1772145;80;21348;-82
2021/08/04 00:50:35;;;;;;;15.48;8.28;;;;;;;23.13;64.45;101504.34;1753603;80;21887;-77
2021/08/04 00:53:29;;;;;;;15.85;7.83;;;;;;;23.13;64.51;101500.94;1776842;80;21177;-74
2021/08/04 00:56:02;;;;;;;13.25;7.37;;;;;;;23.14;64.46;101496.09;1750884;82;21170;-76
2021/08/04 00:58:37;;;;;;;17.67;7.93;;;;;;;23.13;64.21;101510.02;1775231;79;21175;-68
2021/08/04 01:01:22;;;;;;;18.15;7.83;;;;;;;23.12;64.20;101512.03;1777209;79;21742;-68
2021/08/04 01:04:00;;;;;;;16.42;8.75;;;;;;;23.15;64.21;101520.44;1752806;80;21367;-69
2021/08/04 01:07:09;;;;;;;17.85;7.25;;;;;;;23.13;64.21;101522.77;1750857;81;21197;-68
2021/08/04 01:09:51;;;;;;;15.83;7.55;;;;;;;23.17;64.34;101516.75;1767510;80;21179;-69
2021/08/04 01:12:27;;;;;;;25.27;8.60;;;;;;;23.18;64.51;101523.52;1761029;80;21443;-74
2021/08/04 01:15:05;;;;;;;26.80;9.08;;;;;;;23.21;64.23;101522.00;1751310;80;21380;-68
2021/08/04 01:17:41;;;;;;;34.85;9.78;;;;;;;23.13;64.02;101522.20;1754979;80;21268;-69
2021/08/04 01:20:27;;;;;;;30.95;9.03;;;;;;;23.03;64.19;101523.05;1783877;79;21314;-69
2021/08/04 01:23:28;;;;;;;29.95;9.63;;;;;;;22.95;64.23;101528.06;1770370;79;21820;-67
2021/08/04 01:26:08;;;;;;;28.40;10.43;;;;;;;22.86;64.30;101527.17;1697667;83;21350;-69
2021/08/04 01:28:47;;;;;;;16.25;9.25;;;;;;;22.82;64.39;101524.72;1758196;80;21783;-81
2021/08/04 01:31:26;;;;;;;19.85;9.98;;;;;;;22.82;64.37;101535.48;1786696;80;21363;-81
2021/08/04 01:33:59;;;;;;;33.42;10.28;;;;;;;22.81;64.33;101525.28;1783730;79;21321;-78
2021/08/04 01:36:32;;;;;;;29.65;10.32;;;;;;;22.78;64.39;101525.94;1772160;80;21742;-69
2021/08/04 01:39:05;;;;;;;31.77;9.05;;;;;;;22.78;64.42;101533.59;1755718;81;21353;-74
2021/08/04 01:41:39;;;;;;;41.48;10.32;;;;;;;22.80;64.45;101524.21;1756015;80;21272;-75
2021/08/04 01:44:11;;;;;;;22.10;10.10;;;;;;;22.81;64.46;101527.30;1762763;79;21696;-80
2021/08/04 01:46:44;;;;;;;17.15;9.18;;;;;;;22.84;64.61;101527.48;1780525;80;21458;-69
2021/08/04 01:49:19;;;;;;;31.85;9.75;;;;;;;22.86;64.36;101518.67;1773450;80;21221;-83
2021/08/04 01:51:51;;;;;;;15.32;7.92;;;;;;;22.83;64.29;101518.73;1781932;80;21190;-83
2021/08/04 01:54:25;;;;;;;27.80;8.58;;;;;;;22.79;64.54;101514.05;1775828;79;21362;-69
2021/08/04 01:56:57;;;;;;;31.97;8.60;;;;;;;22.76;64.68;101513.25;1776373;80;21155;-71
2021/08/04 01:59:30;;;;;;;41.10;9.43;;;;;;;22.77;64.85;101519.17;1768909;81;21367;-71
2021/08/04 02:02:23;;;;;;;23.07;9.50;;;;;;;22.79;65.01;101521.13;1794110;79;21392;-69
2021/08/04 02:04:55;;;;;;;16.10;8.85;;;;;;;22.78;65.04;101518.86;1798246;80;21387;-69
2021/08/04 02:08:06;;;;;;;19.17;8.90;;;;;;;22.73;65.24;101519.58;1788727;79;21305;-69
2021/08/04 02:11:15;;;;;;;22.67;9.33;;;;;;;22.69;65.42;101510.89;1771889;80;21917;-69
2021/08/04 02:13:54;;;;;;;15.28;8.43;;;;;;;22.73;65.71;101519.58;1791567;80;21827;-68
2021/08/04 02:16:42;;;;;;;19.65;9.08;;;;;;;22.78;65.86;101524.52;1784616;79;21162;-68
2021/08/04 02:19:39;;;;;;;25.08;10.85;;;;;;;22.82;65.94;101533.22;1779903;79;21816;-76
2021/08/04 02:22:22;;;;;;;21.52;10.18;;;;;;;22.84;65.67;101529.47;1750561;81;21347;-68
2021/08/04 02:25:05;;;;;;;22.13;9.48;;;;;;;22.82;65.64;101531.23;1778987;80;21154;-76
2021/08/04 02:27:39;;;;;;;16.35;10.32;;;;;;;22.84;65.84;101536.55;1778394;80;21217;-68
2021/08/04 02:30:13;;;;;;;22.67;10.95;;;;;;;22.85;65.68;101538.25;1764155;80;21379;-70
2021/08/04 02:32:45;;;;;;;21.10;9.73;;;;;;;22.81;65.65;101538.03;1769221;79;21190;-81
2021/08/04 02:35:18;;;;;;;26.65;10.20;;;;;;;22.74;65.57;101540.48;1762503;80;21855;-69
2021/08/04 02:37:50;;;;;;;18.42;9.43;;;;;;;22.72;65.79;101537.70;1732422;81;21324;-86
2021/08/04 02:40:25;;;;;;;18.07;11.17;;;;;;;22.73;66.25;101537.98;1724212;83;21942;-90
2021/08/04 02:42:57;;;;;;;22.20;9.70;;;;;;;22.77;66.35;101544.67;1726630;82;21320;-90
2021/08/04 02:45:31;;;;;;;18.20;8.48;;;;;;;22.80;66.39;101541.21;1713640;83;21317;-88
2021/08/04 02:48:06;;;;;;;23.60;9.70;;;;;;;22.79;66.54;101550.27;1718862;82;21380;-87
2021/08/04 02:50:39;;;;;;;23.57;9.93;;;;;;;22.81;66.65;101545.11;1723754;82;21381;-85
2021/08/04 02:53:13;;;;;;;27.02;10.70;;;;;;;22.82;66.76;101543.98;1728418;81;21377;-81
2021/08/04 02:55:46;;;;;;;19.17;9.75;;;;;;;22.83;66.90;101548.48;1702566;81;21308;-77
2021/08/04 02:58:18;;;;;;;;;;;;;;;22.82;66.65;101540.30;1648567;86;21408;-86
2021/08/04 03:00:51;;;;;;;38.08;13.20;;;;;;;22.81;66.63;101544.30;1648700;85;20197;-77
2021/08/04 03:03:24;;;;;;;33.92;12.45;;;;;;;22.77;66.16;101547.50;1658785;85;21522;-69
2021/08/04 03:05:57;;;;;;;19.30;10.78;;;;;;;22.69;66.39;101553.94;1653518;86;21363;-83
2021/08/04 03:08:30;;;;;;;39.85;12.30;;;;;;;22.63;66.76;101550.41;1659172;85;21325;-71
2021/08/04 03:11:04;;;;;;;20.80;11.83;;;;;;;22.60;66.85;101551.03;1660984;84;21174;-70
2021/08/04 03:13:37;;;;;;;25.65;11.73;;;;;;;22.57;66.76;101559.33;1658987;86;21335;-70
2021/08/04 03:16:09;;;;;;;24.37;12.75;;;;;;;22.53;66.64;101563.95;1681317;82;21170;-71
2021/08/04 03:18:43;;;;;;;29.02;12.05;;;;;;;22.50;66.78;101556.10;1761710;80;21384;-78
2021/08/04 03:21:16;;;;;;;27.00;14.43;;;;;;;22.46;66.66;101564.40;1744018;80;21186;-82
2021/08/04 03:23:48;;;;;;;36.90;13.53;;;;;;;22.43;66.75;101564.20;1746486;81;21299;-71
2021/08/04 03:26:20;;;;;;;20.37;10.95;;;;;;;22.41;66.88;101564.48;1744983;78;21389;-86
2021/08/04 03:28:53;;;;;;;27.37;12.00;;;;;;;22.45;67.21;101568.95;1755137;80;21250;-72
2021/08/04 03:31:26;;;;;;;29.42;12.37;;;;;;;22.53;67.43;101565.36;1734976;80;21298;-83
2021/08/04 03:33:58;;;;;;;25.00;11.50;;;;;;;22.58;66.97;101577.42;1777091;80;21312;-71
2021/08/04 03:36:31;;;;;;;24.18;11.73;;;;;;;22.59;67.19;101574.84;1778916;80;21615;-84
2021/08/04 03:39:04;;;;;;;24.00;11.28;;;;;;;22.63;67.28;101564.57;1747137;80;21383;-83
2021/08/04 03:41:38;;;;;;;26.17;11.93;;;;;;;22.67;67.25;101560.52;1775564;80;21380;-77
2021/08/04 03:44:10;;;;;;;31.80;11.75;;;;;;;22.72;67.44;101566.03;1762788;81;21305;-83
2021/08/04 03:46:46;;;;;;;28.37;11.37;;;;;;;22.75;66.83;101569.06;1741951;82;21323;-81
2021/08/04 03:49:17;;;;;;;34.03;12.28;;;;;;;22.73;67.09;101572.80;1714114;79;21194;-69
2021/08/04 03:51:52;;;;;;;27.55;12.15;;;;;;;22.78;67.36;101576.08;1728660;81;21198;-70
2021/08/04 03:54:26;;;;;;;22.58;10.60;;;;;;;22.86;67.36;101582.42;1748589;82;21333;-68
2021/08/04 03:57:00;;;;;;;25.72;11.70;;;;;;;22.91;67.33;101587.97;1740587;81;21709;-69
2021/08/04 03:59:33;;;;;;;33.33;11.03;;;;;;;22.95;67.27;101588.42;1759961;81;21147;-73
2021/08/04 04:02:07;;;;;;;26.57;10.68;;;;;;;23.00;66.87;101591.70;1780836;79;21324;-69
2021/08/04 04:04:40;;;;;;;22.42;10.55;;;;;;;23.06;66.80;101587.58;1786378;78;21309;-68
2021/08/04 04:07:13;;;;;;;22.85;9.75;;;;;;;23.10;66.68;101585.78;1781048;78;21751;-69
2021/08/04 04:09:46;;;;;;;26.27;9.75;;;;;;;23.12;66.58;101589.13;1792055;79;21372;-70
2021/08/04 04:12:18;;;;;;;25.47;9.63;;;;;;;23.12;66.48;101594.80;1744860;80;21333;-69
2021/08/04 04:14:52;;;;;;;33.25;12.10;;;;;;;23.11;66.09;101594.55;1765277;81;21218;-71
2021/08/04 04:17:24;;;;;;;;;;;;;;;23.07;65.98;101591.52;1771726;80;21170;-69
2021/08/04 04:19:58;;;;;;;31.97;10.88;;;;;;;23.07;65.73;101590.09;1730822;83;20226;-72
2021/08/04 04:22:30;;;;;;;35.77;11.30;;;;;;;23.05;65.71;101593.81;1763034;80;21166;-72
2021/08/04 04:25:03;;;;;;;20.02;9.68;;;;;;;23.13;65.84;101597.31;1756042;80;21914;-84
2021/08/04 04:27:35;;;;;;;30.60;10.10;;;;;;;23.26;65.47;101597.86;1764558;81;21340;-72
2021/08/04 04:30:09;;;;;;;29.07;9.13;;;;;;;23.45;65.18;101604.72;1768528;81;21309;-71
2021/08/04 04:32:41;;;;;;;23.07;9.18;;;;;;;23.71;64.62;101597.22;1751148;80;21213;-80
2021/08/04 04:35:16;;;;;;;27.70;9.23;;;;;;;24.13;64.18;101605.12;1762079;80;21815;-73
2021/08/04 04:37:50;;;;;;;18.10;9.28;;;;;;;24.69;63.00;101603.09;1789187;78;21302;-75
2021/08/04 04:40:22;;;;;;;19.25;9.25;;;;;;;25.28;62.35;101595.75;1776774;80;21312;-75
2021/08/04 04:42:54;;;;;;;29.00;8.85;;;;;;;25.92;61.38;101593.20;1797807;79;21205;-67
2021/08/04 04:45:27;;;;;;;20.70;8.63;;;;;;;26.54;59.73;101594.23;1768543;81;21234;-78
2021/08/04 04:47:59;;;;;;;20.02;7.42;;;;;;;27.14;58.70;101594.84;1793862;79;21752;-77
2021/08/04 04:50:34;;;;;;;;;;;;;;;27.70;56.22;101601.25;1760717;80;21191;-77
2021/08/04 04:53:06;;;;;;;16.30;6.65;;;;;;;28.18;54.11;101597.69;1767802;81;20258;-76
2021/08/04 04:55:41;;;;;;;13.18;5.90;;;;;;;28.59;53.44;101600.30;1767199;79;21384;-78
2021/08/04 04:58:13;;;;;;;7.58;5.03;;;;;;;29.07;52.89;101596.77;1779690;79;21195;-75
2021/08/04 05:00:45;;;;;;;9.58;5.05;;;;;;;29.53;51.18;101604.70;1784907;79;21246;-78
2021/08/04 05:03:20;;;;;;;10.05;5.00;;;;;;;29.88;49.75;101599.12;1772451;79;21393;-78
2021/08/04 05:05:53;;;;;;;9.55;4.60;;;;;;;30.06;48.13;101609.02;1809345;79;21186;-73
2021/08/04 05:08:27;;;;;;;9.65;4.87;;;;;;;30.27;48.39;101603.27;1780036;79;21337;-68
2021/08/04 16:06:47;;;;;;;6.55;4.67;;;;;;;27.74;48.75;101372.91;1853508;76;26426;-71
2021/08/04 16:09:21;;;;;;;9.85;5.45;;;;;;;27.65;48.74;101382.22;1822876;78;21788;-70
2021/08/04 16:11:54;;;;;;;11.63;6.22;;;;;;;27.62;49.18;101374.36;1819970;79;21305;-75
2021/08/04 16:14:26;;;;;;;16.93;5.20;;;;;;;27.60;49.45;101370.45;1805671;79;21356;-72
2021/08/04 16:17:00;;;;;;;8.95;5.60;;;;;;;27.60;50.03;101366.17;1797240;77;21165;-69
2021/08/04 16:19:36;;;;;;;14.68;5.22;;;;;;;27.60;50.56;101357.61;1788108;79;21201;-73
2021/08/04 16:22:08;;;;;;;9.35;5.33;;;;;;;27.61;50.90;101359.27;1712200;82;21359;-70
2021/08/04 16:24:41;;;;;;;11.05;5.60;;;;;;;27.61;51.67;101358.42;1784363;80;21813;-69
2021/08/04 16:27:14;;;;;;;11.73;5.58;;;;;;;27.61;52.18;101359.85;1784176;80;21861;-69
2021/08/04 16:29:46;;;;;;;13.03;5.65;;;;;;;27.56;52.60;101354.38;1784479;80;21169;-70
2021/08/04 16:32:19;;;;;;;8.33;4.67;;;;;;;27.53;52.81;101355.11;1784293;79;21770;-71
2021/08/04 16:34:51;;;;;;;10.00;5.20;;;;;;;27.51;53.14;101358.31;1784475;80;21153;-70
2021/08/04 16:37:24;;;;;;;9.43;6.03;;;;;;;27.48;53.69;101357.62;1784504;80;21154;-71
2021/08/04 16:39:58;;;;;;;16.97;6.57;;;;;;;27.46;54.14;101354.88;1784728;80;21291;-71
2021/08/04 16:42:35;;;;;;;28.25;6.50;;;;;;;27.46;54.64;101357.12;1779396;80;21296;-70
2021/08/04 16:45:09;;;;;;;20.75;6.25;;;;;;;27.45;55.04;101352.61;1749264;81;21858;-70
2021/08/04 16:47:41;;;;;;;;;;;;;;;27.42;55.24;101356.77;1755496;82;21185;-69
2021/08/04 16:50:14;;;;;;;12.55;6.72;;;;;;;27.42;55.50;101351.68;1752364;81;20266;-69
2021/08/04 16:52:47;;;;;;;10.20;6.97;;;;;;;27.40;55.88;101354.88;1739064;82;21333;-69
2021/08/04 16:55:20;;;;;;;8.65;6.45;;;;;;;27.39;56.19;101367.49;1750282;82;21428;-69
2021/08/04 16:57:53;;;;;;;14.90;6.85;;;;;;;27.37;56.50;101370.47;1750694;82;21320;-86
2021/08/04 17:00:27;;;;;;;10.28;5.87;;;;;;;27.33;56.81;101372.59;1750515;82;21238;-71
2021/08/04 17:02:58;;;;;;;;;;;;;;;27.31;57.22;101379.02;1756320;80;21370;-75
2021/08/04 17:05:31;;;;;;;10.65;6.40;;;;;;;27.28;57.34;101379.14;1749610;82;20265;-72
2021/08/04 17:08:05;;;;;;;10.78;6.60;;;;;;;27.28;57.50;101384.00;1743059;82;21372;-71
2021/08/04 17:10:39;;;;;;;8.78;6.47;;;;;;;27.25;57.68;101392.67;1742690;82;21183;-71
2021/08/04 17:13:12;;;;;;;11.08;6.58;;;;;;;27.23;58.05;101397.91;1742220;82;21199;-70
2021/08/04 17:15:46;;;;;;;9.83;6.53;;;;;;;27.21;58.04;101400.88;1742600;82;21182;-70
2021/08/04 17:18:18;;;;;;;15.48;6.80;;;;;;;27.18;58.20;101398.75;1742440;82;21262;-70
2021/08/04 17:20:51;;;;;;;10.75;7.10;;;;;;;27.12;58.57;101390.96;1742466;82;21190;-69
2021/08/04 17:23:24;;;;;;;;;;;;;;;27.07;58.76;101386.09;1744774;82;21191;-70
2021/08/04 17:25:56;;;;;;;12.15;7.17;;;;;;;27.00;58.85;101386.66;1742329;82;20218;-69
2021/08/04 17:28:29;;;;;;;13.43;7.17;;;;;;;26.96;59.04;101399.98;1744383;79;21434;-72
2021/08/04 17:31:01;;;;;;;12.33;7.67;;;;;;;26.93;59.44;101405.53;1747770;82;21865;-71
2021/08/04 17:33:34;;;;;;;14.90;7.17;;;;;;;26.88;59.65;101410.06;1747687;82;21472;-73
2021/08/04 17:36:06;;;;;;;12.00;7.33;;;;;;;26.86;59.89;101406.70;1748016;82;21814;-71
2021/08/04 17:38:39;;;;;;;18.25;8.80;;;;;;;26.83;60.13;101400.30;1742388;81;21185;-78
2021/08/04 17:41:12;;;;;;;16.95;8.05;;;;;;;26.82;60.26;101403.73;1737550;82;21301;-71
2021/08/04 17:43:46;;;;;;;12.65;8.95;;;;;;;26.80;60.35;101408.11;1743274;82;21269;-71
2021/08/04 17:46:19;;;;;;;15.75;9.23;;;;;;;26.78;60.63;101409.06;1746056;82;21960;-70
2021/08/04 17:48:59;;;;;;;15.20;8.75;;;;;;;26.73;60.68;101406.43;1748028;80;21166;-70
2021/08/04 17:51:31;;;;;;;14.78;8.33;;;;;;;26.70;60.88;101407.15;1747741;82;21321;-71
2021/08/04 17:54:07;;;;;;;13.40;9.38;;;;;;;26.67;61.11;101401.55;1746870;82;21424;-70
2021/08/04 17:56:47;;;;;;;14.68;9.53;;;;;;;26.64;61.43;101407.94;1744105;82;21712;-67
2021/08/04 17:59:19;;;;;;;20.48;9.18;;;;;;;26.56;61.65;101398.05;1741247;82;21716;-71
2021/08/04 18:01:52;;;;;;;18.75;9.90;;;;;;;26.53;61.86;101389.60;1747837;82;21226;-71
2021/08/04 18:04:25;;;;;;;20.45;9.68;;;;;;;26.53;62.40;101397.30;1747154;82;21715;-73
2021/08/04 18:06:58;;;;;;;;;;;;;;;26.54;62.70;101390.45;1747066;82;22288;-71
2021/08/04 18:09:31;;;;;;;17.23;10.03;;;;;;;26.54;62.86;101393.30;1741773;82;20193;-70
2021/08/04 18:12:04;;;;;;;24.12;10.35;;;;;;;26.54;63.16;101395.56;1742945;82;21158;-70
2021/08/04 18:14:37;;;;;;;26.07;10.85;;;;;;;26.58;63.42;101397.13;1739597;82;21173;-72
2021/08/04 18:17:11;;;;;;;18.62;9.38;;;;;;;26.58;63.48;101390.81;1738283;82;21348;-75
2021/08/04 18:19:50;;;;;;;16.23;9.50;;;;;;;26.61;63.77;101382.16;1747532;82;21166;-77
2021/08/04 18:22:25;;;;;;;19.67;9.60;;;;;;;26.60;63.83;101383.34;1747456;82;21244;-74
2021/08/04 18:24:58;;;;;;;18.52;10.18;;;;;;;26.63;64.00;101386.33;1747532;82;21320;-72
2021/08/04 18:27:31;;;;;;;19.60;9.88;;;;;;;26.66;63.89;101395.62;1747485;82;21190;-70
2021/08/04 18:30:05;;;;;;;17.12;9.88;;;;;;;26.68;64.06;101386.69;1738848;81;21783;-72
2021/08/04 18:32:43;;;;;;;16.17;9.88;;;;;;;26.62;64.24;101370.41;1737100;82;21894;-74
2021/08/04 18:35:13;;;;;;;18.55;9.40;;;;;;;26.56;64.49;101375.25;1727710;82;21218;-70
2021/08/04 18:37:46;;;;;;;21.37;9.83;;;;;;;26.50;64.68;101376.61;1706447;84;21190;-73
2021/08/04 18:40:20;;;;;;;18.45;10.88;;;;;;;26.50;64.75;101382.31;1724266;83;21293;-72
2021/08/04 18:42:53;;;;;;;26.80;10.30;;;;;;;26.53;64.88;101382.47;1732613;83;21408;-73
2021/08/04 18:45:27;;;;;;;26.55;10.72;;;;;;;26.56;64.86;101383.80;1723949;83;21246;-72
2021/08/04 18:48:01;;;;;;;22.62;10.23;;;;;;;26.56;64.92;101383.22;1703278;84;21368;-69
2021/08/04 18:50:34;;;;;;;25.92;11.20;;;;;;;26.53;64.99;101381.05;1703611;84;21317;-70
2021/08/04 18:53:07;;;;;;;22.25;10.90;;;;;;;26.54;65.26;101374.77;1704905;83;21191;-72
2021/08/04 18:55:41;;;;;;;20.62;10.38;;;;;;;26.52;65.41;101375.08;1706287;83;21178;-74
2021/08/04 18:58:13;;;;;;;19.10;10.70;;;;;;;26.50;65.62;101380.89;1734735;83;21446;-73
2021/08/04 19:00:47;;;;;;;25.12;11.65;;;;;;;26.45;65.81;101390.50;1729237;83;21388;-74
2021/08/04 19:03:20;;;;;;;24.45;12.53;;;;;;;26.44;65.91;101389.41;1733083;83;21188;-78
2021/08/04 19:05:52;;;;;;;25.23;13.72;;;;;;;26.45;66.00;101391.11;1702736;83;21170;-76
2021/08/04 19:08:26;;;;;;;33.55;15.80;;;;;;;26.45;66.08;101385.41;1732801;83;21206;-73
2021/08/04 19:10:59;;;;;;;27.57;17.40;;;;;;;26.42;66.16;101388.94;1689980;85;21770;-67
2021/08/04 19:13:31;;;;;;;;;;;;;;;26.38;66.21;101392.23;1692131;85;21720;-69
2021/08/04 19:16:04;;;;;;;34.95;20.27;;;;;;;26.36;66.45;101390.34;1737462;82;20607;-70
2021/08/04 19:18:38;;;;;;;37.90;21.07;;;;;;;26.34;66.71;101399.23;1691325;85;21825;-70
2021/08/04 19:21:10;;;;;;;36.58;20.82;;;;;;;26.37;66.81;101390.58;1703951;83;21854;-76
2021/08/04 19:23:42;;;;;;;36.37;18.57;;;;;;;26.40;66.83;101387.05;1716607;83;21234;-69
2021/08/04 19:26:15;;;;;;;43.95;20.55;;;;;;;26.39;66.77;101391.08;1717090;83;21348;-71
2021/08/04 19:28:49;;;;;;;34.08;21.25;;;;;;;26.37;67.01;101392.00;1716010;82;21724;-70
2021/08/04 19:31:21;;;;;;;42.10;18.50;;;;;;;26.35;67.22;101388.67;1715001;82;21394;-68
2021/08/04 19:33:54;;;;;;;46.10;20.68;;;;;;;26.31;67.30;101385.69;1687316;84;21192;-68
2021/08/04 19:36:29;;;;;;;45.08;19.67;;;;;;;26.33;67.40;101389.63;1710917;83;21186;-69
2021/08/04 19:39:04;;;;;;;41.30;19.37;;;;;;;26.36;67.55;101391.76;1716161;83;21332;-71
2021/08/04 19:41:36;;;;;;;34.03;18.37;;;;;;;26.37;67.56;101397.12;1716132;83;21371;-70
2021/08/04 19:44:09;;;;;;;35.97;18.20;;;;;;;26.40;67.62;101407.80;1721271;83;22105;-75
2021/08/04 19:46:42;;;;;;;34.97;17.30;;;;;;;26.40;67.69;101406.37;1688300;85;22104;-69
2021/08/04 19:49:16;;;;;;;39.60;16.42;;;;;;;26.42;67.68;101406.04;1687445;83;21194;-70
2021/08/04 19:51:48;;;;;;;24.05;16.60;;;;;;;26.42;67.67;101401.77;1687542;85;21337;-71
2021/08/04 19:54:20;;;;;;;31.57;15.88;;;;;;;26.41;67.48;101417.20;1684118;85;21257;-68
2021/08/04 19:56:53;;;;;;;32.78;15.60;;;;;;;26.41;67.48;101417.20;1687483;85;21759;-70
2021/08/04 19:59:26;;;;;;;26.70;15.18;;;;;;;26.37;67.81;101415.64;1675087;85;21210;-72
2021/08/04 20:01:59;;;;;;;;;;;;;;;26.36;67.93;101396.88;1665988;86;21739;-73
2021/08/04 20:04:32;;;;;;;32.95;15.58;;;;;;;26.35;68.07;101398.65;1701049;83;20263;-68
2021/08/04 20:07:06;;;;;;;32.70;15.72;;;;;;;26.34;68.08;101386.41;1715755;83;21182;-72
2021/08/04 20:09:39;;;;;;;25.43;14.80;;;;;;;26.39;68.03;101393.92;1715034;83;21791;-79
2021/08/04 20:12:11;;;;;;;27.05;14.63;;;;;;;26.43;68.04;101391.45;1715010;83;21229;-77
2021/08/04 20:14:46;;;;;;;25.30;15.25;;;;;;;26.46;67.98;101384.22;1715250;83;21675;-70
2021/08/04 20:17:20;;;;;;;28.35;14.95;;;;;;;26.46;68.01;101385.64;1714819;83;21572;-71
2021/08/04 20:19:52;;;;;;;27.10;13.28;;;;;;;26.42;68.02;101386.09;1714982;83;21328;-70
2021/08/04 20:22:32;;;;;;;28.50;13.13;;;;;;;26.39;68.16;101389.05;1716171;83;21204;-71
2021/08/04 20:25:04;;;;;;;27.30;13.65;;;;;;;26.37;68.29;101392.00;1716585;83;21178;-71
2021/08/04 20:27:37;;;;;;;24.10;14.00;;;;;;;26.35;68.38;101402.34;1716395;83;21331;-71
2021/08/04 20:30:10;;;;;;;28.80;14.93;;;;;;;26.36;68.46;101400.31;1715845;83;21245;-71
2021/08/04 20:32:43;;;;;;;25.10;14.33;;;;;;;26.37;68.41;101409.09;1714977;80;21378;-74
2021/08/04 20:35:18;;;;;;;22.93;12.37;;;;;;;26.34;68.50;101407.77;1736571;82;21342;-75
2021/08/04 20:37:50;;;;;;;25.17;15.28;;;;;;;26.34;68.69;101404.92;1736757;82;21382;-73
2021/08/04 20:40:24;;;;;;;31.75;12.75;;;;;;;26.35;68.88;101415.74;1736622;81;21406;-74
2021/08/04 20:42:57;;;;;;;26.80;12.93;;;;;;;26.35;68.88;101419.44;1736833;82;21240;-75
2021/08/04 20:45:32;;;;;;;29.30;13.53;;;;;;;26.37;68.84;101433.31;1736557;81;21200;-79
2021/08/04 20:48:05;;;;;;;28.02;13.32;;;;;;;26.38;68.66;101436.40;1736491;81;21200;-73
2021/08/04 20:50:37;;;;;;;21.12;13.18;;;;;;;26.37;68.89;101432.73;1736635;82;21218;-73
2021/08/04 20:53:10;;;;;;;22.85;13.38;;;;;;;26.37;68.97;101439.02;1736802;82;21676;-74
2021/08/04 20:55:42;;;;;;;26.17;14.80;;;;;;;26.37;69.05;101446.98;1733940;82;21355;-73
2021/08/04 20:58:15;;;;;;;36.45;14.95;;;;;;;26.38;69.16;101442.09;1729573;83;21443;-74
2021/08/04 21:00:48;;;;;;;30.97;14.45;;;;;;;26.41;69.27;101448.54;1749655;82;21704;-76
2021/08/04 21:03:21;;;;;;;31.40;16.60;;;;;;;26.42;69.31;101451.63;1729303;76;21699;-70
2021/08/04 21:05:53;;;;;;;29.98;14.23;;;;;;;26.42;69.57;101451.05;1723731;83;21224;-68
2021/08/04 21:08:26;;;;;;;26.07;15.37;;;;;;;26.38;69.88;101447.22;1737424;82;21229;-68
2021/08/04 21:10:58;;;;;;;;;;;;;;;26.37;69.98;101444.71;1755851;81;21492;-69
2021/08/04 21:13:31;;;;;;;35.68;15.53;;;;;;;26.37;70.27;101444.71;1753403;81;20189;-68
2021/08/04 21:16:05;;;;;;;37.15;16.30;;;;;;;26.34;70.34;101440.54;1753324;82;21716;-70
2021/08/04 21:18:38;;;;;;;32.05;16.67;;;;;;;26.34;70.46;101434.84;1753306;81;21680;-69
2021/08/04 21:21:11;;;;;;;28.35;14.83;;;;;;;26.31;70.61;101432.70;1753448;81;22441;-69
2021/08/04 21:23:45;;;;;;;38.17;15.85;;;;;;;26.33;70.81;101433.78;1723565;82;21201;-70
2021/08/04 21:26:17;;;;;;;;;;;;;;;26.34;70.89;101434.02;1726129;82;21357;-71
2021/08/04 21:28:53;;;;;;;29.02;16.60;;;;;;;26.32;70.99;101442.06;1723483;82;20251;-73
2021/08/04 21:31:25;;;;;;;34.45;17.62;;;;;;;26.29;71.13;101437.08;1723480;82;21202;-69
2021/08/04 21:33:59;;;;;;;27.20;15.68;;;;;;;26.25;71.47;101441.21;1723600;82;21244;-72
2021/08/04 21:36:31;;;;;;;28.45;15.20;;;;;;;26.23;71.36;101452.13;1718625;79;21188;-76
2021/08/04 21:39:04;;;;;;;27.10;16.23;;;;;;;26.21;71.55;101458.75;1807391;79;21210;-71
2021/08/04 21:41:36;;;;;;;;;;;;;;;26.19;71.71;101469.66;1809775;79;21210;-72
2021/08/04 21:44:09;;;;;;;37.60;17.02;;;;;;;26.20;71.69;101474.17;1807266;79;20217;-74
2021/08/04 21:46:42;;;;;;;31.10;16.67;;;;;;;26.25;71.70;101467.43;1807190;79;21226;-75
2021/08/04 21:49:15;;;;;;;25.85;14.87;;;;;;;26.24;71.66;101475.16;1807218;79;21701;-73
2021/08/04 21:51:47;;;;;;;29.30;15.03;;;;;;;26.22;71.64;101488.89;1807317;79;21753;-74
2021/08/04 21:54:21;;;;;;;32.60;15.38;;;;;;;26.20;71.68;101482.72;1807138;79;21239;-70
2021/08/04 21:56:54;;;;;;;30.82;13.95;;;;;;;26.22;71.88;101484.63;1799254;79;21243;-72
2021/08/04 21:59:27;;;;;;;32.17;15.97;;;;;;;26.25;71.85;101473.13;1793188;79;21219;-77
2021/08/04 22:02:02;;;;;;;33.00;14.63;;;;;;;26.27;71.94;101463.66;1807271;79;21238;-72
2021/08/04 22:04:35;;;;;;;23.47;13.28;;;;;;;26.23;71.91;101447.86;1803044;79;21937;-73
2021/08/04 22:07:07;;;;;;;23.32;13.25;;;;;;;26.19;71.85;101446.87;1787314;79;21161;-73
2021/08/04 22:09:40;;;;;;;;;;;;;;;26.20;71.49;101442.02;1776352;80;21180;-75
2021/08/04 22:12:12;;;;;;;23.70;14.18;;;;;;;26.19;71.68;101446.02;1796359;78;20216;-72
2021/08/04 22:14:45;;;;;;;23.27;15.70;;;;;;;26.14;71.94;101447.08;1807061;79;21223;-72
2021/08/04 22:17:19;;;;;;;21.75;14.03;;;;;;;26.09;72.09;101443.61;1806977;79;21216;-73
2021/08/04 22:19:52;;;;;;;20.63;13.70;;;;;;;26.08;72.05;101449.88;1807357;79;21398;-72
2021/08/04 22:22:27;;;;;;;28.62;14.70;;;;;;;26.07;72.16;101450.22;1806579;79;21177;-72
2021/08/04 22:25:00;;;;;;;24.20;13.38;;;;;;;26.05;72.27;101440.63;1805969;79;21232;-73
2021/08/04 22:27:33;;;;;;;22.22;13.58;;;;;;;26.06;72.26;101440.02;1778601;79;21189;-75
2021/08/04 22:30:06;;;;;;;;;;;;;;;26.04;72.42;101434.66;1808251;79;21194;-72
2021/08/04 22:32:39;;;;;;;28.53;13.43;;;;;;;26.03;72.41;101438.69;1805155;79;20296;-72
2021/08/04 22:35:12;;;;;;;25.23;13.78;;;;;;;26.01;72.44;101440.20;1805398;79;21214;-72
2021/08/04 22:37:57;;;;;;;25.05;13.45;;;;;;;26.00;72.65;101439.39;1805486;78;21150;-72
2021/08/04 22:40:33;;;;;;;18.10;12.85;;;;;;;26.01;72.60;101431.66;1805084;79;21174;-73
2021/08/04 22:43:05;;;;;;;19.50;12.58;;;;;;;26.00;72.65;101416.61;1804286;79;21238;-72
2021/08/04 22:45:39;;;;;;;16.20;11.68;;;;;;;25.99;72.60;101417.80;1792367;79;21193;-71